Time;durP1;ratioP1;P1;durP2;ratioP2;P2;SDS_P1;SDS_P2;PMS_P1;PMS_P2;Temp;Humidity;BMP_temperature;BMP_pressure;BME280_temperature;BME280_humidity;BME280_pressure;Samples;Min_cycle;Max_cycle;Signal;HPM_P1;HPM_P2
2022/06/15 00:01:02;;;;;;;4.65;3.80;;;;;;;11.85;77.47;94966.85;1753637;81;21019;-50
2022/06/15 00:03:32;;;;;;;7.40;3.70;;;;;;;11.80;77.64;94970.20;1753227;81;21243;-50
2022/06/15 00:06:13;;;;;;;5.25;3.70;;;;;;;11.81;77.87;94970.36;1753145;81;20958;-50
2022/06/15 00:08:42;;;;;;;5.55;4.12;;;;;;;11.82;77.73;94967.75;1753489;81;21426;-49
2022/06/15 00:11:17;;;;;;;5.55;3.30;;;;;;;11.81;77.52;94963.47;1753211;81;21135;-49
2022/06/15 00:13:45;;;;;;;4.50;3.62;;;;;;;11.80;77.21;94968.03;1752725;81;21050;-49
2022/06/15 00:16:13;;;;;;;4.55;3.35;;;;;;;11.74;77.14;94973.97;1753619;81;21250;-49
2022/06/15 00:18:41;;;;;;;4.45;3.58;;;;;;;11.70;77.33;94973.34;1753323;81;21399;-49
2022/06/15 00:21:09;;;;;;;7.55;3.55;;;;;;;11.66;77.49;94974.83;1753300;81;21434;-49
2022/06/15 00:23:37;;;;;;;5.37;4.00;;;;;;;11.56;77.68;94966.32;1753136;81;20989;-50
2022/06/15 00:26:06;;;;;;;6.03;4.15;;;;;;;11.46;77.94;94963.33;1753325;81;21014;-49
2022/06/15 00:28:34;;;;;;;3.80;3.40;;;;;;;11.40;78.21;94967.88;1721961;81;21878;-50
2022/06/15 00:31:02;;;;;;;5.03;4.08;;;;;;;11.35;78.28;94970.42;1720837;81;20962;-50
2022/06/15 00:33:30;;;;;;;3.92;3.62;;;;;;;11.29;78.37;94972.97;1753164;81;20963;-52
2022/06/15 00:36:01;;;;;;;4.70;4.17;;;;;;;11.24;78.68;94967.25;1753482;81;21442;-49
2022/06/15 00:38:32;;;;;;;5.87;3.72;;;;;;;11.20;79.07;94964.61;1753298;81;21529;-48
2022/06/15 00:41:00;;;;;;;7.50;3.70;;;;;;;11.18;79.41;94962.91;1753689;81;21105;-49
2022/06/15 00:43:36;;;;;;;16.27;4.50;;;;;;;11.15;79.58;94954.17;1753159;81;21054;-49
2022/06/15 00:46:23;;;;;;;6.53;3.62;;;;;;;11.15;79.50;94955.55;1753441;81;20997;-49
2022/06/15 00:48:57;;;;;;;4.78;4.03;;;;;;;11.13;79.88;94959.98;1753150;81;21444;-49
2022/06/15 00:51:25;;;;;;;4.87;3.37;;;;;;;11.09;80.03;94955.96;1722967;81;21062;-49
2022/06/15 00:53:54;;;;;;;7.80;4.37;;;;;;;11.06;79.96;94958.23;1753190;81;21800;-50
2022/06/15 00:56:24;;;;;;;7.30;4.35;;;;;;;10.99;79.93;94954.33;1722891;82;21477;-49
2022/06/15 00:58:53;;;;;;;8.08;3.83;;;;;;;10.94;80.25;94954.89;1746255;82;21151;-49
2022/06/15 01:01:22;;;;;;;6.70;3.55;;;;;;;10.91;80.52;94957.16;1746377;81;20970;-50
2022/06/15 01:03:49;;;;;;;6.10;3.50;;;;;;;10.88;80.96;94960.02;1746299;81;20991;-49
2022/06/15 01:06:24;;;;;;;5.22;3.77;;;;;;;10.85;80.96;94958.16;1746370;81;20994;-49
2022/06/15 01:09:15;;;;;;;;;;;;;;;10.79;81.06;94957.95;1748499;81;20953;-49
2022/06/15 01:12:16;;;;;;;5.33;3.92;;;;;;;10.75;81.29;94960.64;1746380;82;20182;-50
2022/06/15 01:15:07;;;;;;;4.55;3.80;;;;;;;10.73;81.59;94961.10;1746357;81;21026;-49
2022/06/15 01:18:00;;;;;;;4.60;3.90;;;;;;;10.77;81.87;94956.87;1746363;82;21045;-49
2022/06/15 01:20:46;;;;;;;6.75;4.08;;;;;;;10.86;81.96;94954.98;1746389;81;21243;-48
2022/06/15 01:23:41;;;;;;;4.30;3.90;;;;;;;10.96;81.82;94961.34;1746187;81;20995;-48
2022/06/15 01:26:46;;;;;;;4.05;3.72;;;;;;;11.00;81.76;94955.86;1746342;82;20989;-50
2022/06/15 01:29:59;;;;;;;5.92;4.33;;;;;;;11.03;81.63;94955.00;1746258;82;21443;-49
2022/06/15 01:32:53;;;;;;;4.10;3.70;;;;;;;11.03;81.43;94963.85;1746503;82;21054;-50
2022/06/15 01:35:34;;;;;;;4.72;4.25;;;;;;;11.07;81.16;94963.90;1745637;81;22264;-50
2022/06/15 01:38:25;;;;;;;3.90;3.60;;;;;;;11.07;80.92;94959.77;1746115;82;20951;-50
2022/06/15 01:41:25;;;;;;;5.25;3.90;;;;;;;11.07;80.86;94961.14;1746393;81;20959;-53
2022/06/15 01:44:01;;;;;;;5.62;4.40;;;;;;;10.99;80.71;94957.08;1746373;82;20999;-52
2022/06/15 01:46:29;;;;;;;4.72;4.15;;;;;;;10.93;80.87;94958.08;1739027;82;21007;-51
2022/06/15 01:48:58;;;;;;;6.10;3.67;;;;;;;10.89;80.90;94949.95;1746188;82;21198;-50
2022/06/15 01:51:33;;;;;;;3.87;3.50;;;;;;;10.87;80.95;94956.52;1746153;81;21070;-49
2022/06/15 01:54:04;;;;;;;5.72;3.85;;;;;;;10.82;81.09;94954.92;1746448;82;21094;-49
2022/06/15 01:56:40;;;;;;;6.05;4.08;;;;;;;10.75;81.37;94950.42;1746983;82;21436;-49
2022/06/15 01:59:23;;;;;;;7.22;4.72;;;;;;;10.77;81.74;94965.13;1748195;81;21093;-50
2022/06/15 02:02:08;;;;;;;6.25;3.90;;;;;;;10.82;81.79;94960.44;1747539;81;21146;-50
2022/06/15 02:05:15;;;;;;;4.28;3.83;;;;;;;10.81;81.76;94951.39;1747933;82;21042;-50
2022/06/15 02:07:55;;;;;;;4.97;3.65;;;;;;;10.79;81.70;94960.70;1748256;82;21073;-49
2022/06/15 02:10:56;;;;;;;5.83;4.25;;;;;;;10.79;81.64;94962.08;1747513;81;20966;-50
2022/06/15 02:13:34;;;;;;;4.85;3.58;;;;;;;10.78;81.86;94968.04;1748069;82;21046;-50
2022/06/15 02:16:07;;;;;;;4.12;3.70;;;;;;;10.76;81.98;94977.34;1748197;81;20971;-49
2022/06/15 02:18:35;;;;;;;3.87;3.58;;;;;;;10.65;82.02;94972.00;1727674;82;21521;-49
2022/06/15 02:21:06;;;;;;;9.45;4.30;;;;;;;10.54;82.27;94975.09;1748335;82;21013;-49
2022/06/15 02:23:35;;;;;;;8.25;3.90;;;;;;;10.54;82.46;94977.08;1748290;82;20951;-49
2022/06/15 02:26:03;;;;;;;4.53;3.95;;;;;;;10.56;82.59;94974.03;1748232;82;20945;-49
2022/06/15 02:28:37;;;;;;;4.70;3.92;;;;;;;10.60;82.65;94975.31;1748075;82;21340;-49
2022/06/15 02:31:06;;;;;;;8.55;4.37;;;;;;;10.65;82.91;94980.25;1748114;82;21122;-51
2022/06/15 02:33:41;;;;;;;5.80;3.50;;;;;;;10.69;82.87;94972.67;1748146;82;21502;-49
2022/06/15 02:36:10;;;;;;;8.00;3.50;;;;;;;10.68;82.76;94970.52;1747874;81;21018;-50
2022/06/15 02:38:39;;;;;;;6.08;3.45;;;;;;;10.70;82.62;94967.33;1748119;82;20943;-50
2022/06/15 02:41:09;;;;;;;5.30;3.72;;;;;;;10.72;82.66;94971.16;1748169;82;21338;-49
2022/06/15 02:43:37;;;;;;;3.67;3.37;;;;;;;10.78;82.73;94975.67;1727525;82;21103;-48
2022/06/15 02:46:05;;;;;;;5.37;4.35;;;;;;;10.82;82.57;94980.45;1748412;82;21542;-49
2022/06/15 02:48:35;;;;;;;5.87;3.90;;;;;;;10.84;82.56;94986.90;1748079;82;20998;-49
2022/06/15 02:51:14;;;;;;;5.95;3.77;;;;;;;10.87;82.38;94987.39;1748063;81;20951;-48
2022/06/15 02:53:44;;;;;;;6.42;3.60;;;;;;;10.88;82.30;94984.20;1748268;82;21261;-50
2022/06/15 02:56:12;;;;;;;4.42;3.50;;;;;;;10.90;82.00;94984.52;1727467;81;20966;-50
2022/06/15 02:58:44;;;;;;;6.08;4.83;;;;;;;10.88;82.00;94992.46;1722049;81;21422;-49
2022/06/15 03:01:14;;;;;;;9.05;3.95;;;;;;;10.83;82.51;94986.11;1753321;81;20959;-49
2022/06/15 03:03:42;;;;;;;4.85;3.77;;;;;;;10.90;82.71;94997.51;1753530;81;21069;-51
2022/06/15 03:06:18;;;;;;;9.50;4.00;;;;;;;10.96;82.54;94992.38;1752019;81;21298;-49
2022/06/15 03:08:45;;;;;;;10.63;4.10;;;;;;;11.01;82.64;94992.44;1753458;81;21054;-49
2022/06/15 03:11:16;;;;;;;7.72;3.90;;;;;;;11.06;82.73;94984.39;1751811;81;21457;-49
2022/06/15 03:13:46;;;;;;;9.08;3.72;;;;;;;11.12;82.65;94988.11;1722301;81;20994;-50
2022/06/15 03:16:13;;;;;;;7.40;3.47;;;;;;;11.15;82.51;94984.46;1722117;81;21072;-49
2022/06/15 03:18:43;;;;;;;9.23;3.60;;;;;;;11.21;82.42;94982.67;1753517;81;21109;-49
2022/06/15 03:21:12;;;;;;;6.65;3.83;;;;;;;11.25;82.06;94975.08;1753215;81;20943;-49
2022/06/15 03:23:40;;;;;;;5.70;4.10;;;;;;;11.28;81.83;94983.05;1753240;81;20950;-49
2022/06/15 03:26:09;;;;;;;6.47;4.00;;;;;;;11.31;81.92;94986.31;1753256;81;20969;-50
2022/06/15 03:28:37;;;;;;;5.00;3.60;;;;;;;11.35;81.62;94987.70;1753222;81;20986;-49
2022/06/15 03:31:07;;;;;;;5.00;3.70;;;;;;;11.40;81.15;94985.78;1753337;81;21149;-50
2022/06/15 03:33:37;;;;;;;3.55;3.25;;;;;;;11.42;80.70;94979.81;1753197;81;21570;-50
2022/06/15 03:36:07;;;;;;;4.03;3.37;;;;;;;11.43;80.44;94990.39;1752942;81;20998;-49
2022/06/15 03:38:36;;;;;;;4.12;3.72;;;;;;;11.41;80.18;94994.80;1753386;81;21046;-50
2022/06/15 03:41:11;;;;;;;4.10;3.70;;;;;;;11.38;80.01;94995.07;1752364;81;20966;-50
2022/06/15 03:43:40;;;;;;;5.28;3.85;;;;;;;11.31;80.00;94991.81;1753712;81;21333;-48
2022/06/15 03:46:08;;;;;;;9.98;4.67;;;;;;;11.30;79.95;94994.38;1753162;81;20994;-50
2022/06/15 03:48:38;;;;;;;6.17;3.95;;;;;;;11.28;79.90;94995.44;1753207;81;21066;-51
2022/06/15 03:51:06;;;;;;;5.65;3.70;;;;;;;11.27;79.99;94997.44;1753506;81;20993;-50
2022/06/15 03:53:35;;;;;;;7.17;4.03;;;;;;;11.30;79.95;94993.00;1752996;81;21091;-50
2022/06/15 03:56:03;;;;;;;4.10;3.67;;;;;;;11.36;80.22;94993.37;1753257;81;21447;-50
2022/06/15 03:58:34;;;;;;;4.90;3.75;;;;;;;11.45;79.58;94994.84;1748670;81;20994;-50
2022/06/15 04:01:02;;;;;;;5.60;3.40;;;;;;;11.46;79.18;95001.11;1748130;82;21462;-50
2022/06/15 04:03:31;;;;;;;6.22;3.55;;;;;;;11.44;78.94;95004.33;1748273;82;20966;-50
2022/06/15 04:06:02;;;;;;;7.70;3.80;;;;;;;11.44;79.07;95001.57;1748123;81;20943;-49
2022/06/15 04:08:35;;;;;;;5.12;4.05;;;;;;;11.48;79.30;95000.84;1747531;81;21125;-50
2022/06/15 04:11:11;;;;;;;8.03;4.37;;;;;;;11.59;79.09;95008.17;1728526;82;21443;-50
2022/06/15 04:13:40;;;;;;;4.58;3.58;;;;;;;11.65;79.00;95011.09;1748092;81;21005;-48
2022/06/15 04:16:09;;;;;;;5.10;4.17;;;;;;;11.71;78.89;94999.05;1748153;82;21003;-49
2022/06/15 04:18:39;;;;;;;5.80;4.00;;;;;;;11.76;78.66;95004.61;1748108;82;20995;-50
2022/06/15 04:21:09;;;;;;;13.35;4.20;;;;;;;11.84;78.33;94999.77;1748201;82;21224;-49
2022/06/15 04:23:39;;;;;;;12.10;4.10;;;;;;;11.88;77.91;95002.41;1748053;82;20994;-49
2022/06/15 04:26:09;;;;;;;8.20;3.85;;;;;;;11.91;77.86;95004.27;1748247;82;20990;-49
2022/06/15 04:28:40;;;;;;;5.30;3.75;;;;;;;11.94;77.65;95001.36;1747980;81;21033;-49
2022/06/15 04:31:10;;;;;;;4.33;3.75;;;;;;;11.98;77.63;94998.48;1747328;81;20954;-55
2022/06/15 04:33:40;;;;;;;8.88;4.05;;;;;;;11.97;77.40;94999.70;1727193;82;21307;-55
2022/06/15 04:36:12;;;;;;;18.52;4.33;;;;;;;11.98;77.48;95004.78;1727711;82;21049;-55
2022/06/15 04:38:41;;;;;;;4.33;3.53;;;;;;;12.00;77.44;95000.96;1748369;82;20958;-50
2022/06/15 04:41:11;;;;;;;3.72;3.42;;;;;;;12.10;77.44;94997.02;1748141;82;20963;-51
2022/06/15 04:43:39;;;;;;;4.67;3.67;;;;;;;12.17;77.40;95002.30;1727489;82;21005;-50
2022/06/15 04:46:09;;;;;;;5.12;4.00;;;;;;;12.24;77.46;95000.64;1747677;81;21143;-50
2022/06/15 04:48:37;;;;;;;4.60;3.60;;;;;;;12.36;77.24;94998.42;1748445;82;20987;-52
2022/06/15 04:51:15;;;;;;;8.13;3.40;;;;;;;12.52;76.78;95000.95;1748125;82;21050;-50
2022/06/15 04:53:45;;;;;;;3.98;3.33;;;;;;;12.65;76.15;95003.77;1747824;81;21085;-51
2022/06/15 04:56:15;;;;;;;8.60;3.72;;;;;;;12.74;75.25;94999.65;1726333;82;21050;-51
2022/06/15 04:58:43;;;;;;;11.60;6.83;;;;;;;12.77;74.89;94994.63;1752125;81;21206;-49
2022/06/15 05:01:13;;;;;;;7.25;3.60;;;;;;;12.76;74.36;94992.30;1753059;81;20942;-50
2022/06/15 05:03:41;;;;;;;6.80;3.75;;;;;;;12.72;74.34;95006.23;1753574;81;21369;-50
2022/06/15 05:06:31;;;;;;;14.18;4.08;;;;;;;12.76;74.29;95007.48;1753312;81;20993;-49
2022/06/15 05:08:59;;;;;;;14.45;3.70;;;;;;;12.83;74.31;94997.53;1727410;81;20962;-50
2022/06/15 05:11:29;;;;;;;10.58;3.72;;;;;;;12.94;73.97;95001.43;1753208;81;21774;-50
2022/06/15 05:13:57;;;;;;;4.47;3.12;;;;;;;13.02;73.45;94997.77;1753793;81;21002;-50
2022/06/15 05:16:27;;;;;;;4.30;3.37;;;;;;;13.11;73.24;94990.91;1753215;81;21493;-53
2022/06/15 05:18:56;;;;;;;5.08;3.42;;;;;;;13.30;73.04;94993.86;1752994;81;21081;-50
2022/06/15 05:21:27;;;;;;;7.95;3.60;;;;;;;13.45;72.39;95000.33;1721108;81;21033;-49
2022/06/15 05:23:55;;;;;;;7.42;3.65;;;;;;;13.56;72.01;95002.02;1753404;81;21799;-50
2022/06/15 05:26:24;;;;;;;7.87;3.52;;;;;;;13.63;71.58;94998.33;1725297;81;20994;-48
2022/06/15 05:28:53;;;;;;;5.03;3.65;;;;;;;13.70;71.17;95004.17;1753086;81;21462;-50
2022/06/15 05:31:22;;;;;;;6.75;3.65;;;;;;;13.75;70.96;94999.41;1753154;81;21099;-50
2022/06/15 05:33:56;;;;;;;4.50;3.37;;;;;;;13.78;70.74;95005.42;1752907;81;20959;-50
2022/06/15 05:36:31;;;;;;;6.33;3.95;;;;;;;13.79;70.53;95002.81;1721730;81;21249;-50
2022/06/15 05:39:01;;;;;;;8.30;3.20;;;;;;;13.80;70.22;94994.66;1743622;81;21008;-50
2022/06/15 05:41:29;;;;;;;5.33;2.85;;;;;;;13.85;70.29;95000.33;1687238;82;21104;-53
2022/06/15 05:46:35;;;;;;;6.72;5.45;;;;;;;13.97;70.31;94998.66;1698923;82;21545;-51
2022/06/15 05:49:06;;;;;;;5.83;3.85;;;;;;;14.01;70.26;94990.33;1705297;83;21198;-51
2022/06/15 05:51:35;;;;;;;5.58;3.58;;;;;;;14.01;70.04;94991.71;1710461;82;21403;-52
2022/06/15 05:54:05;;;;;;;10.45;3.62;;;;;;;14.03;70.04;94993.39;1743382;82;20953;-53
2022/06/15 05:56:38;;;;;;;6.15;3.77;;;;;;;14.06;70.13;94988.95;1741868;81;21565;-51
2022/06/15 05:59:03;;;;;;;10.13;3.77;;;;;;;14.19;70.08;94995.11;1700115;82;21066;-51
2022/06/15 06:01:33;;;;;;;5.90;3.65;;;;;;;14.37;69.97;94989.53;1675775;83;21342;-53
2022/06/15 06:04:00;;;;;;;6.50;3.80;;;;;;;14.51;69.28;94993.19;1739940;81;21175;-57
2022/06/15 06:06:28;;;;;;;19.62;4.05;;;;;;;14.66;68.89;94995.42;1739875;81;21007;-52
2022/06/15 06:08:55;;;;;;;11.33;3.70;;;;;;;14.79;68.86;94993.23;1730756;81;21056;-54
2022/06/15 06:11:23;;;;;;;5.85;3.87;;;;;;;14.91;68.72;94996.42;1705497;81;21017;-52
2022/06/15 06:13:51;;;;;;;7.62;3.85;;;;;;;15.04;68.81;94989.27;1719143;81;21228;-51
2022/06/15 06:16:31;;;;;;;5.58;3.60;;;;;;;15.16;68.71;94986.27;1736175;81;21136;-56
2022/06/15 06:19:07;;;;;;;9.85;4.20;;;;;;;15.31;68.38;94992.69;1702271;82;20971;-53
2022/06/15 06:21:37;;;;;;;5.78;3.42;;;;;;;15.48;67.68;94991.04;1709226;82;21037;-54
2022/06/15 06:24:06;;;;;;;6.35;3.87;;;;;;;15.64;66.78;94982.91;1706248;81;21415;-54
2022/06/15 06:26:35;;;;;;;6.08;3.20;;;;;;;15.77;66.10;94984.19;1732982;81;21107;-58
2022/06/15 06:29:02;;;;;;;4.50;2.83;;;;;;;15.94;65.08;94992.84;1720459;81;20979;-55
2022/06/15 06:31:30;;;;;;;5.12;3.70;;;;;;;16.12;64.32;94989.91;1736984;81;21024;-52
2022/06/15 06:33:58;;;;;;;8.78;3.80;;;;;;;16.23;63.40;94983.94;1743376;81;21096;-52
2022/06/15 06:36:36;;;;;;;9.98;4.65;;;;;;;16.32;62.55;94979.06;1724579;81;21093;-51
2022/06/15 06:39:06;;;;;;;14.98;5.40;;;;;;;16.47;62.55;94979.86;1710180;83;21077;-53
2022/06/15 06:41:35;;;;;;;5.45;4.42;;;;;;;16.65;61.55;94982.44;1684950;83;21597;-52
2022/06/15 06:44:04;;;;;;;6.75;3.27;;;;;;;16.78;60.70;94980.14;1711262;81;21079;-52
2022/06/15 06:46:34;;;;;;;5.62;3.30;;;;;;;16.91;60.36;94977.80;1728265;81;21066;-54
2022/06/15 06:49:07;;;;;;;8.30;4.20;;;;;;;17.01;59.67;94979.84;1735708;81;21062;-53
2022/06/15 06:51:36;;;;;;;;;;;;;;;17.12;58.31;94974.45;1699745;82;21180;-52
2022/06/15 06:54:04;;;;;;;5.53;2.90;;;;;;;17.24;58.54;94967.81;1734366;81;20179;-53
2022/06/15 06:56:37;;;;;;;3.95;2.58;;;;;;;17.38;58.08;94975.34;1715351;81;21031;-52
2022/06/15 06:59:07;;;;;;;4.95;3.00;;;;;;;17.50;57.67;94965.91;1709170;81;21068;-52
2022/06/15 07:01:36;;;;;;;5.10;2.52;;;;;;;17.59;56.32;94961.58;1740583;81;21090;-52
2022/06/15 07:04:03;;;;;;;5.90;2.47;;;;;;;17.70;56.56;94969.47;1738097;81;22238;-54
2022/06/15 07:06:31;;;;;;;2.90;2.58;;;;;;;17.76;55.58;94967.51;1713556;83;21028;-57
2022/06/15 07:09:01;;;;;;;5.78;2.85;;;;;;;17.78;54.61;94968.39;1739020;81;21122;-55
2022/06/15 07:11:34;;;;;;;3.72;2.60;;;;;;;17.78;55.08;94961.44;1705902;83;21132;-53
2022/06/15 07:14:10;;;;;;;8.18;4.00;;;;;;;17.80;54.37;94961.73;1713505;83;21085;-52
2022/06/15 07:16:46;;;;;;;6.45;2.85;;;;;;;17.81;54.53;94961.88;1714540;81;21033;-56
2022/06/15 07:19:17;;;;;;;8.18;2.52;;;;;;;17.86;54.72;94957.73;1734653;81;21637;-58
2022/06/15 07:21:46;;;;;;;5.35;2.60;;;;;;;18.02;55.33;94956.42;1723180;81;21743;-57
2022/06/15 07:24:21;;;;;;;7.97;2.40;;;;;;;18.17;54.82;94955.05;1732375;81;21135;-57
2022/06/15 07:26:49;;;;;;;4.62;2.22;;;;;;;18.33;53.50;94950.31;1747421;81;21073;-58
2022/06/15 07:29:20;;;;;;;3.22;1.90;;;;;;;18.46;52.36;94950.69;1740105;81;21095;-59
2022/06/15 07:31:52;;;;;;;3.75;2.58;;;;;;;18.50;51.67;94948.44;1740135;81;21055;-57
2022/06/15 07:34:20;;;;;;;3.10;2.12;;;;;;;18.53;51.76;94951.02;1739548;81;21176;-58
2022/06/15 07:36:50;;;;;;;4.92;2.22;;;;;;;18.63;51.04;94943.25;1728337;82;21491;-58
2022/06/15 07:39:21;;;;;;;6.08;2.20;;;;;;;18.67;50.23;94949.35;1713262;82;21087;-60
2022/06/15 07:41:49;;;;;;;2.05;1.80;;;;;;;18.74;50.46;94944.09;1742431;81;22126;-63
2022/06/15 07:44:18;;;;;;;4.92;2.17;;;;;;;18.86;49.69;94941.51;1710873;82;21089;-55
2022/06/15 07:46:46;;;;;;;3.90;2.40;;;;;;;18.87;48.65;94938.10;1726104;82;21062;-60
2022/06/15 07:52:03;;;;;;;6.20;2.25;;;;;;;18.88;49.52;94937.63;1726958;82;21061;-56
2022/06/15 07:54:31;;;;;;;3.70;2.20;;;;;;;19.11;51.10;94928.13;1742847;81;21097;-61
2022/06/15 07:56:59;;;;;;;8.98;3.40;;;;;;;19.48;52.05;94930.27;1746872;81;21019;-54
2022/06/15 07:59:28;;;;;;;4.60;2.42;;;;;;;19.82;50.00;94929.77;1744587;80;21089;-57
2022/06/15 08:01:56;;;;;;;5.97;2.35;;;;;;;19.99;48.31;94930.59;1722376;81;21096;-58
2022/06/15 08:04:24;;;;;;;3.00;2.00;;;;;;;20.10;47.49;94931.41;1726326;81;21200;-51
2022/06/15 08:06:53;;;;;;;3.20;1.90;;;;;;;20.15;46.69;94922.27;1729575;81;21579;-55
2022/06/15 08:09:22;;;;;;;6.17;1.92;;;;;;;20.13;46.15;94924.81;1699996;82;21557;-52
2022/06/15 08:14:42;;;;;;;2.87;1.90;;;;;;;20.21;46.79;94932.84;1729413;82;21037;-55
2022/06/15 08:17:18;;;;;;;12.10;5.50;;;;;;;20.21;46.62;94931.45;1737356;81;21685;-53
2022/06/15 08:19:49;;;;;;;5.25;2.58;;;;;;;20.27;45.79;94926.63;1734954;80;21123;-55
2022/06/15 08:22:16;;;;;;;8.40;2.10;;;;;;;20.27;45.68;94935.01;1730909;81;20978;-54
2022/06/15 08:24:44;;;;;;;3.70;1.82;;;;;;;20.24;46.35;94931.83;1738174;80;21450;-55
2022/06/15 08:27:14;;;;;;;2.85;1.57;;;;;;;20.20;45.64;94929.92;1680995;82;21071;-52
2022/06/15 08:29:41;;;;;;;2.72;1.65;;;;;;;20.11;45.45;94932.94;1736135;80;21033;-51
2022/06/15 08:32:09;;;;;;;6.05;1.85;;;;;;;20.02;46.73;94931.78;1727901;81;21066;-53
2022/06/15 08:34:38;;;;;;;3.35;1.72;;;;;;;20.01;47.80;94931.63;1688135;82;21005;-54
2022/06/15 08:37:07;;;;;;;3.40;2.00;;;;;;;20.11;48.75;94934.34;1698091;82;21463;-54
2022/06/15 08:39:36;;;;;;;4.85;1.62;;;;;;;20.35;48.68;94934.66;1719745;80;21100;-56
2022/06/15 08:42:18;;;;;;;3.40;1.95;;;;;;;20.62;46.56;94932.52;1690297;81;21086;-54
2022/06/15 08:45:07;;;;;;;10.03;2.72;;;;;;;20.87;46.06;94928.72;1696201;82;21207;-57
2022/06/15 08:47:46;;;;;;;2.15;1.67;;;;;;;21.14;45.00;94932.14;1691754;82;21649;-54
2022/06/15 08:50:32;;;;;;;2.72;1.50;;;;;;;21.33;43.54;94928.28;1684589;83;21380;-53
2022/06/15 08:53:17;;;;;;;5.92;1.87;;;;;;;21.29;43.83;94932.63;1730384;82;21649;-51
2022/06/15 08:55:56;;;;;;;5.58;1.85;;;;;;;21.32;43.49;94926.01;1675804;83;21098;-51
2022/06/15 08:58:46;;;;;;;5.12;2.20;;;;;;;21.35;42.73;94919.38;1710779;81;21215;-53
2022/06/15 09:01:34;;;;;;;4.08;2.50;;;;;;;21.46;43.41;94915.91;1726684;81;21011;-54
2022/06/15 09:04:21;;;;;;;2.92;1.60;;;;;;;21.61;43.59;94919.17;1728305;81;21033;-53
2022/06/15 09:07:15;;;;;;;2.83;1.70;;;;;;;21.77;44.24;94917.61;1724844;81;21081;-56
2022/06/15 09:09:57;;;;;;;6.17;1.87;;;;;;;21.80;43.31;94911.00;1725122;81;21049;-54
2022/06/15 09:13:03;;;;;;;4.47;1.52;;;;;;;21.77;41.82;94919.78;1706537;82;21141;-54
2022/06/15 09:15:49;;;;;;;4.22;1.87;;;;;;;21.59;41.75;94913.33;1706760;82;21022;-55
2022/06/15 09:18:37;;;;;;;3.30;1.62;;;;;;;21.38;41.51;94919.75;1716606;82;21860;-54
2022/06/15 09:21:09;;;;;;;2.85;1.70;;;;;;;21.31;42.74;94916.83;1695740;82;21113;-56
2022/06/15 09:23:51;;;;;;;2.00;1.50;;;;;;;21.36;42.91;94918.10;1679012;83;21123;-52
2022/06/15 09:26:33;;;;;;;4.03;2.50;;;;;;;21.46;44.31;94918.70;1701959;83;21233;-50
2022/06/15 09:29:18;;;;;;;3.95;1.85;;;;;;;21.62;43.88;94917.92;1705101;82;21018;-57
2022/06/15 09:31:56;;;;;;;3.83;1.80;;;;;;;21.57;44.22;94922.11;1709227;82;21117;-54
2022/06/15 09:34:37;;;;;;;2.67;1.37;;;;;;;21.35;44.30;94915.18;1713064;82;21475;-53
2022/06/15 09:37:13;;;;;;;6.50;1.92;;;;;;;21.09;44.26;94920.33;1699423;83;21659;-55
2022/06/15 09:39:41;;;;;;;5.08;1.80;;;;;;;20.83;44.19;94931.80;1730644;82;21138;-53
2022/06/15 09:42:24;;;;;;;3.27;2.10;;;;;;;20.66;44.27;94924.02;1730601;82;20966;-53
2022/06/15 09:44:57;;;;;;;3.90;1.87;;;;;;;20.51;44.85;94924.88;1731942;82;21070;-52
2022/06/15 09:47:51;;;;;;;3.02;2.08;;;;;;;20.32;44.66;94923.07;1682149;83;21050;-52
2022/06/15 09:50:24;;;;;;;4.85;1.85;;;;;;;20.10;45.64;94932.06;1716083;82;21031;-53
2022/06/15 09:53:32;;;;;;;2.90;1.65;;;;;;;19.93;46.43;94929.83;1730006;82;21135;-55
2022/06/15 09:56:09;;;;;;;5.28;2.02;;;;;;;19.83;46.86;94940.45;1715988;82;21051;-53
2022/06/15 09:58:45;;;;;;;4.12;2.08;;;;;;;19.68;47.18;94931.50;1708000;81;21105;-52
2022/06/15 10:01:13;;;;;;;3.45;2.08;;;;;;;19.60;48.06;94938.81;1705949;83;21116;-51
2022/06/15 10:03:47;;;;;;;3.00;2.02;;;;;;;19.52;47.19;94938.42;1686019;83;21369;-53
2022/06/15 10:06:47;;;;;;;4.08;2.15;;;;;;;19.46;48.38;94933.42;1719212;82;21143;-53
2022/06/15 10:09:18;;;;;;;4.22;1.75;;;;;;;19.43;48.65;94936.60;1748339;81;21049;-52
2022/06/15 10:11:52;;;;;;;5.40;2.30;;;;;;;19.43;49.01;94943.58;1754363;81;21043;-51
2022/06/15 10:14:36;;;;;;;3.77;2.40;;;;;;;19.36;48.24;94940.48;1750314;81;21037;-51
2022/06/15 10:17:08;;;;;;;5.35;2.52;;;;;;;19.27;48.17;94935.88;1749345;81;21050;-55
2022/06/15 10:19:35;;;;;;;4.75;2.77;;;;;;;19.28;48.71;94936.62;1746214;81;21906;-55
2022/06/15 10:22:12;;;;;;;4.45;2.27;;;;;;;19.29;48.52;94938.92;1751402;81;21153;-52
2022/06/15 10:24:40;;;;;;;3.65;2.10;;;;;;;19.40;49.06;94936.17;1742692;81;21015;-59
2022/06/15 10:27:34;;;;;;;3.08;2.10;;;;;;;19.61;50.02;94943.16;1664117;82;21049;-54
2022/06/15 10:30:12;;;;;;;5.78;2.12;;;;;;;19.89;50.39;94933.50;1743529;81;21508;-51
2022/06/15 10:33:14;;;;;;;4.55;2.30;;;;;;;20.10;48.76;94936.25;1746986;81;21147;-53
2022/06/15 10:35:42;;;;;;;7.22;2.58;;;;;;;20.18;48.32;94932.47;1715539;83;21001;-51
2022/06/15 10:38:13;;;;;;;5.35;2.40;;;;;;;20.13;47.94;94938.03;1675457;81;21079;-53
2022/06/15 10:40:52;;;;;;;5.22;2.83;;;;;;;19.95;47.78;94935.02;1719096;81;21443;-52
2022/06/15 10:43:31;;;;;;;5.42;2.83;;;;;;;19.76;48.38;94935.98;1750764;81;21079;-52
2022/06/15 10:46:05;;;;;;;5.65;3.17;;;;;;;19.56;48.88;94938.94;1750186;81;21217;-53
2022/06/15 10:48:51;;;;;;;4.75;2.60;;;;;;;19.42;49.57;94947.63;1754371;81;21075;-51
2022/06/15 10:51:35;;;;;;;7.55;2.65;;;;;;;19.26;49.97;94939.92;1729120;81;21522;-53
2022/06/15 10:54:32;;;;;;;4.80;3.05;;;;;;;19.12;50.68;94943.61;1690988;83;21583;-52
2022/06/15 11:03:19;;;;;;;3.67;2.33;;;;;;;18.81;51.04;94951.99;1713982;83;21031;-52
2022/06/15 11:05:47;;;;;;;3.02;2.20;;;;;;;18.78;51.51;94955.78;1710406;83;21455;-51
2022/06/15 11:08:18;;;;;;;14.73;5.50;;;;;;;18.76;51.65;94959.70;1681104;82;21133;-53
2022/06/15 11:10:50;;;;;;;7.60;3.98;;;;;;;18.72;51.70;94960.55;1692439;83;21067;-51
2022/06/15 11:13:33;;;;;;;4.83;2.80;;;;;;;18.64;51.39;94960.84;1698134;83;22214;-51
2022/06/15 11:19:16;;;;;;;6.28;2.50;;;;;;;18.55;51.64;94956.08;1708212;82;21057;-53
2022/06/15 11:21:55;;;;;;;6.62;2.60;;;;;;;18.54;52.37;94951.77;1678266;84;21061;-52
2022/06/15 11:24:47;;;;;;;5.97;2.95;;;;;;;18.55;52.11;94954.69;1701806;81;21067;-51
2022/06/15 11:27:42;;;;;;;5.90;2.85;;;;;;;18.61;52.13;94961.09;1692892;83;21246;-53
2022/06/15 11:30:26;;;;;;;3.67;2.90;;;;;;;18.61;52.13;94961.09;1700749;81;21006;-52
2022/06/15 11:33:22;;;;;;;5.10;2.40;;;;;;;18.61;52.11;94963.23;1711040;82;21072;-52
2022/06/15 11:36:11;;;;;;;4.58;2.85;;;;;;;18.58;52.05;94959.27;1713776;83;21077;-51
2022/06/15 11:38:50;;;;;;;4.30;2.85;;;;;;;18.57;52.63;94962.70;1707835;83;21066;-51
2022/06/15 11:41:29;;;;;;;5.40;2.30;;;;;;;18.60;52.72;94963.72;1701227;82;21865;-51
2022/06/15 11:43:58;;;;;;;4.42;2.40;;;;;;;18.56;52.79;94959.00;1677652;84;20973;-52
2022/06/15 11:47:08;;;;;;;4.72;2.62;;;;;;;18.51;53.21;94960.50;1644644;85;21062;-52
2022/06/15 11:49:51;;;;;;;9.43;2.67;;;;;;;18.48;53.28;94960.07;1665097;84;21086;-49
2022/06/15 11:52:35;;;;;;;4.12;2.42;;;;;;;18.45;53.10;94969.42;1714320;82;21014;-53
2022/06/15 11:55:43;;;;;;;4.12;2.55;;;;;;;18.41;53.32;94968.10;1708661;82;21145;-51
2022/06/15 11:58:45;;;;;;;3.70;2.20;;;;;;;18.36;53.18;94965.42;1700270;83;21127;-56
2022/06/15 12:01:19;;;;;;;4.83;2.17;;;;;;;18.38;52.74;94971.88;1673840;84;21086;-49
2022/06/15 12:04:01;;;;;;;3.60;2.00;;;;;;;18.40;52.71;94975.71;1722843;81;21050;-54
2022/06/15 12:07:04;;;;;;;2.20;2.00;;;;;;;18.61;52.16;94965.27;1703562;83;21554;-52
2022/06/15 12:10:11;;;;;;;19.12;3.98;;;;;;;18.85;52.64;94968.51;1682554;82;21335;-50
2022/06/15 12:12:57;;;;;;;4.97;1.82;;;;;;;19.09;52.64;94965.52;1706693;83;21002;-51
2022/06/15 12:15:38;;;;;;;3.92;2.35;;;;;;;19.24;51.91;94971.75;1724896;82;21030;-52
2022/06/15 12:18:35;;;;;;;4.08;2.35;;;;;;;19.32;51.42;94957.45;1706407;82;21999;-50
2022/06/15 12:21:12;;;;;;;4.20;2.20;;;;;;;19.39;51.38;94966.74;1663678;84;21018;-52
2022/06/15 12:24:04;;;;;;;5.92;2.12;;;;;;;19.47;51.29;94968.44;1725306;82;21156;-53
2022/06/15 12:26:44;;;;;;;5.97;2.12;;;;;;;19.56;51.00;94967.60;1690891;82;22257;-53
2022/06/15 12:29:25;;;;;;;5.75;2.47;;;;;;;19.58;50.89;94969.91;1720698;82;21557;-51